sensor_id;sensor_type;location;lat;lon;timestamp;pressure;altitude;pressure_sealevel;temperature;humidity
35307;BME280;21420;52.196;21.416;2023-10-09T00:02:09;100991.44;;;1.24;50.39
35307;BME280;21420;52.196;21.416;2023-10-09T00:04:41;100985.78;;;1.17;50.37
35307;BME280;21420;52.196;21.416;2023-10-09T00:07:10;100982.84;;;1.14;50.51
35307;BME280;21420;52.196;21.416;2023-10-09T00:09:38;100982.17;;;1.12;50.60
35307;BME280;21420;52.196;21.416;2023-10-09T00:12:19;100977.46;;;1.10;50.68
35307;BME280;21420;52.196;21.416;2023-10-09T00:14:51;100974.00;;;1.09;50.73
35307;BME280;21420;52.196;21.416;2023-10-09T00:17:23;100971.56;;;1.08;50.79
35307;BME280;21420;52.196;21.416;2023-10-09T00:19:50;100973.23;;;1.08;50.78
35307;BME280;21420;52.196;21.416;2023-10-09T00:22:26;100973.23;;;1.07;50.95
35307;BME280;21420;52.196;21.416;2023-10-09T00:24:56;100969.77;;;1.06;51.01
35307;BME280;21420;52.196;21.416;2023-10-09T00:27:41;100961.28;;;1.03;51.07
35307;BME280;21420;52.196;21.416;2023-10-09T00:30:14;100953.39;;;1.01;51.24
35307;BME280;21420;52.196;21.416;2023-10-09T00:32:49;100958.99;;;1.00;51.21
35307;BME280;21420;52.196;21.416;2023-10-09T00:35:28;100963.23;;;0.98;51.30
35307;BME280;21420;52.196;21.416;2023-10-09T00:38:24;100960.23;;;0.94;51.28
35307;BME280;21420;52.196;21.416;2023-10-09T00:40:58;100959.89;;;0.91;51.28
35307;BME280;21420;52.196;21.416;2023-10-09T00:43:40;100960.25;;;0.89;51.43
35307;BME280;21420;52.196;21.416;2023-10-09T00:46:10;100956.35;;;0.86;51.42
35307;BME280;21420;52.196;21.416;2023-10-09T00:48:48;100956.38;;;0.83;51.54
35307;BME280;21420;52.196;21.416;2023-10-09T00:51:18;100951.66;;;0.81;51.55
35307;BME280;21420;52.196;21.416;2023-10-09T00:53:48;100946.00;;;0.80;51.60
35307;BME280;21420;52.196;21.416;2023-10-09T00:56:19;100941.39;;;0.77;51.60
35307;BME280;21420;52.196;21.416;2023-10-09T00:58:54;100936.42;;;0.76;51.66
35307;BME280;21420;52.196;21.416;2023-10-09T01:01:41;100931.39;;;0.74;51.77
35307;BME280;21420;52.196;21.416;2023-10-09T01:04:15;100927.80;;;0.71;51.79
35307;BME280;21420;52.196;21.416;2023-10-09T01:06:46;100929.11;;;0.67;51.95
35307;BME280;21420;52.196;21.416;2023-10-09T01:09:30;100926.92;;;0.64;51.96
35307;BME280;21420;52.196;21.416;2023-10-09T01:12:04;100919.91;;;0.63;52.00
35307;BME280;21420;52.196;21.416;2023-10-09T01:14:31;100920.66;;;0.63;52.00
35307;BME280;21420;52.196;21.416;2023-10-09T01:17:08;100923.20;;;0.64;52.04
35307;BME280;21420;52.196;21.416;2023-10-09T01:19:36;100928.34;;;0.65;52.15
35307;BME280;21420;52.196;21.416;2023-10-09T01:22:02;100935.32;;;0.68;52.35
35307;BME280;21420;52.196;21.416;2023-10-09T01:24:42;100937.73;;;0.62;52.31
35307;BME280;21420;52.196;21.416;2023-10-09T01:27:10;100937.06;;;0.52;52.21
35307;BME280;21420;52.196;21.416;2023-10-09T01:29:43;100929.20;;;0.48;52.27
35307;BME280;21420;52.196;21.416;2023-10-09T01:32:13;100921.89;;;0.45;52.36
35307;BME280;21420;52.196;21.416;2023-10-09T01:34:44;100919.45;;;0.43;52.36
35307;BME280;21420;52.196;21.416;2023-10-09T01:37:14;100917.99;;;0.42;52.49
35307;BME280;21420;52.196;21.416;2023-10-09T01:39:57;100913.37;;;0.43;52.51
35307;BME280;21420;52.196;21.416;2023-10-09T01:42:46;100907.98;;;0.45;52.43
35307;BME280;21420;52.196;21.416;2023-10-09T01:45:14;100910.40;;;0.47;52.56
35307;BME280;21420;52.196;21.416;2023-10-09T01:47:44;100906.31;;;0.49;52.80
35307;BME280;21420;52.196;21.416;2023-10-09T01:50:21;100901.17;;;0.47;52.85
35307;BME280;21420;52.196;21.416;2023-10-09T01:52:58;100895.02;;;0.46;52.70
35307;BME280;21420;52.196;21.416;2023-10-09T01:55:32;100886.28;;;0.39;52.68
35307;BME280;21420;52.196;21.416;2023-10-09T01:58:03;100877.02;;;0.34;52.65
35307;BME280;21420;52.196;21.416;2023-10-09T02:01:03;100885.26;;;0.33;52.85
35307;BME280;21420;52.196;21.416;2023-10-09T02:03:32;100890.46;;;0.36;52.93
35307;BME280;21420;52.196;21.416;2023-10-09T02:06:03;100879.64;;;0.43;53.14
35307;BME280;21420;52.196;21.416;2023-10-09T02:08:31;100874.09;;;0.50;53.26
35307;BME280;21420;52.196;21.416;2023-10-09T02:11:02;100870.91;;;0.56;53.47
35307;BME280;21420;52.196;21.416;2023-10-09T02:13:29;100864.63;;;0.58;53.36
35307;BME280;21420;52.196;21.416;2023-10-09T02:19:11;100888.58;;;0.60;53.50
35307;BME280;21420;52.196;21.416;2023-10-09T02:21:56;100891.69;;;0.66;53.63
35307;BME280;21420;52.196;21.416;2023-10-09T02:24:24;100889.30;;;0.72;53.63
35307;BME280;21420;52.196;21.416;2023-10-09T02:27:13;100881.75;;;0.76;53.63
35307;BME280;21420;52.196;21.416;2023-10-09T02:29:46;100882.14;;;0.79;53.71
35307;BME280;21420;52.196;21.416;2023-10-09T02:32:13;100889.27;;;0.82;53.90
35307;BME280;21420;52.196;21.416;2023-10-09T02:34:42;100887.78;;;0.83;53.94
35307;BME280;21420;52.196;21.416;2023-10-09T02:37:13;100885.84;;;0.84;53.81
35307;BME280;21420;52.196;21.416;2023-10-09T02:39:40;100885.48;;;0.85;53.84
35307;BME280;21420;52.196;21.416;2023-10-09T02:42:13;100880.96;;;0.88;54.01
35307;BME280;21420;52.196;21.416;2023-10-09T02:47:02;100870.98;;;0.94;54.09
35307;BME280;21420;52.196;21.416;2023-10-09T02:49:32;100879.13;;;0.94;54.05
35307;BME280;21420;52.196;21.416;2023-10-09T02:52:00;100883.40;;;0.97;54.13
35307;BME280;21420;52.196;21.416;2023-10-09T02:54:33;100873.48;;;0.99;54.09
35307;BME280;21420;52.196;21.416;2023-10-09T02:57:08;100864.42;;;0.99;54.20
35307;BME280;21420;52.196;21.416;2023-10-09T02:59:42;100866.75;;;0.99;54.31
35307;BME280;21420;52.196;21.416;2023-10-09T03:02:12;100877.05;;;1.00;54.28
35307;BME280;21420;52.196;21.416;2023-10-09T03:04:38;100878.25;;;1.02;54.51
35307;BME280;21420;52.196;21.416;2023-10-09T03:07:08;100877.35;;;1.05;54.39
35307;BME280;21420;52.196;21.416;2023-10-09T03:09:37;100874.33;;;1.04;54.39
35307;BME280;21420;52.196;21.416;2023-10-09T03:12:04;100876.33;;;1.03;54.41
35307;BME280;21420;52.196;21.416;2023-10-09T03:14:37;100876.66;;;1.04;54.58
35307;BME280;21420;52.196;21.416;2023-10-09T03:17:08;100867.44;;;1.06;54.59
35307;BME280;21420;52.196;21.416;2023-10-09T03:19:39;100870.20;;;1.08;54.53
35307;BME280;21420;52.196;21.416;2023-10-09T03:22:07;100876.38;;;1.11;54.67
35307;BME280;21420;52.196;21.416;2023-10-09T03:24:38;100869.64;;;1.12;54.70
35307;BME280;21420;52.196;21.416;2023-10-09T03:27:06;100863.77;;;1.14;54.66
35307;BME280;21420;52.196;21.416;2023-10-09T03:29:32;100857.92;;;1.14;54.59
35307;BME280;21420;52.196;21.416;2023-10-09T03:32:00;100857.13;;;1.15;54.76
35307;BME280;21420;52.196;21.416;2023-10-09T03:34:26;100852.98;;;1.15;54.83
35307;BME280;21420;52.196;21.416;2023-10-09T03:36:54;100848.83;;;1.15;54.80
35307;BME280;21420;52.196;21.416;2023-10-09T03:39:47;100846.22;;;1.13;54.95
35307;BME280;21420;52.196;21.416;2023-10-09T03:42:15;100845.69;;;1.13;54.91
35307;BME280;21420;52.196;21.416;2023-10-09T03:44:49;100856.05;;;1.16;55.06
35307;BME280;21420;52.196;21.416;2023-10-09T03:47:20;100859.52;;;1.18;54.97
35307;BME280;21420;52.196;21.416;2023-10-09T03:49:51;100861.27;;;1.22;55.00
35307;BME280;21420;52.196;21.416;2023-10-09T03:52:19;100863.45;;;1.24;55.26
35307;BME280;21420;52.196;21.416;2023-10-09T03:54:46;100864.91;;;1.27;55.37
35307;BME280;21420;52.196;21.416;2023-10-09T03:57:13;100864.34;;;1.30;55.30
35307;BME280;21420;52.196;21.416;2023-10-09T03:59:46;100859.70;;;1.31;55.23
35307;BME280;21420;52.196;21.416;2023-10-09T04:02:14;100861.33;;;1.35;55.36
35307;BME280;21420;52.196;21.416;2023-10-09T04:04:43;100861.63;;;1.39;55.36
35307;BME280;21420;52.196;21.416;2023-10-09T04:07:14;100864.77;;;1.42;55.27
35307;BME280;21420;52.196;21.416;2023-10-09T04:09:44;100870.08;;;1.46;55.39
35307;BME280;21420;52.196;21.416;2023-10-09T04:12:36;100871.27;;;1.49;55.49
35307;BME280;21420;52.196;21.416;2023-10-09T04:15:06;100869.02;;;1.52;55.54
35307;BME280;21420;52.196;21.416;2023-10-09T04:17:41;100864.27;;;1.54;55.62
35307;BME280;21420;52.196;21.416;2023-10-09T04:20:10;100859.16;;;1.56;55.59
35307;BME280;21420;52.196;21.416;2023-10-09T04:22:46;100851.30;;;1.59;55.60
35307;BME280;21420;52.196;21.416;2023-10-09T04:25:26;100854.50;;;1.62;55.59
35307;BME280;21420;52.196;21.416;2023-10-09T04:27:56;100855.09;;;1.62;55.45
35307;BME280;21420;52.196;21.416;2023-10-09T04:30:47;100850.52;;;1.64;55.62
35307;BME280;21420;52.196;21.416;2023-10-09T04:33:21;100848.14;;;1.67;55.73
35307;BME280;21420;52.196;21.416;2023-10-09T04:36:04;100848.14;;;1.66;55.54
35307;BME280;21420;52.196;21.416;2023-10-09T04:38:47;100844.44;;;1.60;55.44
35307;BME280;21420;52.196;21.416;2023-10-09T04:41:46;100838.21;;;1.54;55.46
35307;BME280;21420;52.196;21.416;2023-10-09T04:44:13;100832.32;;;1.50;55.56
35307;BME280;21420;52.196;21.416;2023-10-09T04:46:47;100829.71;;;1.48;55.51
35307;BME280;21420;52.196;21.416;2023-10-09T04:49:33;100822.58;;;1.46;55.66
35307;BME280;21420;52.196;21.416;2023-10-09T04:52:29;100820.48;;;1.45;55.68
35307;BME280;21420;52.196;21.416;2023-10-09T04:54:57;100818.90;;;1.43;55.64
35307;BME280;21420;52.196;21.416;2023-10-09T05:00:06;100810.99;;;1.38;55.71
35307;BME280;21420;52.196;21.416;2023-10-09T05:02:33;100811.43;;;1.37;55.84
35307;BME280;21420;52.196;21.416;2023-10-09T05:05:04;100811.04;;;1.36;55.67
35307;BME280;21420;52.196;21.416;2023-10-09T05:08:03;100810.77;;;1.34;55.83
35307;BME280;21420;52.196;21.416;2023-10-09T05:13:31;100808.91;;;1.32;56.07
35307;BME280;21420;52.196;21.416;2023-10-09T05:16:12;100803.58;;;1.31;56.01
35307;BME280;21420;52.196;21.416;2023-10-09T05:18:42;100798.23;;;1.32;56.17
35307;BME280;21420;52.196;21.416;2023-10-09T05:21:12;100792.63;;;1.32;56.23
35307;BME280;21420;52.196;21.416;2023-10-09T05:23:42;100779.67;;;1.32;56.21
35307;BME280;21420;52.196;21.416;2023-10-09T05:26:15;100772.54;;;1.33;56.32
35307;BME280;21420;52.196;21.416;2023-10-09T05:29:00;100765.86;;;1.32;56.33
35307;BME280;21420;52.196;21.416;2023-10-09T05:31:36;100765.37;;;1.33;56.45
35307;BME280;21420;52.196;21.416;2023-10-09T05:34:23;100772.67;;;1.35;56.42
35307;BME280;21420;52.196;21.416;2023-10-09T05:37:02;100770.63;;;1.39;56.51
35307;BME280;21420;52.196;21.416;2023-10-09T05:39:49;100771.45;;;1.44;56.54
35307;BME280;21420;52.196;21.416;2023-10-09T05:42:35;100773.26;;;1.51;56.70
35307;BME280;21420;52.196;21.416;2023-10-09T05:45:13;100773.15;;;1.54;56.69
35307;BME280;21420;52.196;21.416;2023-10-09T05:47:59;100773.06;;;1.59;56.74
35307;BME280;21420;52.196;21.416;2023-10-09T05:50:51;100769.45;;;1.64;56.74
35307;BME280;21420;52.196;21.416;2023-10-09T05:53:39;100774.80;;;1.70;56.86
35307;BME280;21420;52.196;21.416;2023-10-09T05:56:12;100775.52;;;1.76;57.04
35307;BME280;21420;52.196;21.416;2023-10-09T05:58:58;100768.42;;;1.83;56.96
35307;BME280;21420;52.196;21.416;2023-10-09T06:01:43;100770.41;;;1.89;56.92
35307;BME280;21420;52.196;21.416;2023-10-09T06:04:25;100766.65;;;1.93;56.89
35307;BME280;21420;52.196;21.416;2023-10-09T06:07:11;100759.19;;;1.97;56.97
35307;BME280;21420;52.196;21.416;2023-10-09T06:09:39;100751.85;;;2.04;56.98
35307;BME280;21420;52.196;21.416;2023-10-09T06:12:37;100746.71;;;2.10;56.99
35307;BME280;21420;52.196;21.416;2023-10-09T06:15:10;100739.48;;;2.14;57.05
35307;BME280;21420;52.196;21.416;2023-10-09T06:17:58;100744.88;;;2.17;57.03
35307;BME280;21420;52.196;21.416;2023-10-09T06:20:44;100747.68;;;2.22;56.99
35307;BME280;21420;52.196;21.416;2023-10-09T06:23:30;100752.71;;;2.30;57.22
35307;BME280;21420;52.196;21.416;2023-10-09T06:26:32;100749.18;;;2.42;57.25
35307;BME280;21420;52.196;21.416;2023-10-09T06:28:59;100754.36;;;2.56;57.38
35307;BME280;21420;52.196;21.416;2023-10-09T06:31:42;100757.64;;;2.66;57.36
35307;BME280;21420;52.196;21.416;2023-10-09T06:34:27;100759.01;;;2.82;57.51
35307;BME280;21420;52.196;21.416;2023-10-09T06:37:01;100762.20;;;2.99;57.65
35307;BME280;21420;52.196;21.416;2023-10-09T06:39:46;100763.83;;;3.14;57.46
35307;BME280;21420;52.196;21.416;2023-10-09T06:42:23;100766.25;;;3.29;57.47
35307;BME280;21420;52.196;21.416;2023-10-09T06:45:10;100760.68;;;3.40;57.43
35307;BME280;21420;52.196;21.416;2023-10-09T06:47:46;100759.52;;;3.45;57.26
35307;BME280;21420;52.196;21.416;2023-10-09T06:50:23;100760.24;;;3.52;57.25
35307;BME280;21420;52.196;21.416;2023-10-09T06:52:52;100763.43;;;3.62;57.38
35307;BME280;21420;52.196;21.416;2023-10-09T06:55:38;100759.29;;;3.76;57.55
35307;BME280;21420;52.196;21.416;2023-10-09T06:58:32;100761.41;;;3.90;57.52
35307;BME280;21420;52.196;21.416;2023-10-09T07:01:14;100758.77;;;4.10;57.56
35307;BME280;21420;52.196;21.416;2023-10-09T07:04:00;100757.36;;;4.24;57.35
35307;BME280;21420;52.196;21.416;2023-10-09T07:06:37;100754.75;;;4.31;57.34
35307;BME280;21420;52.196;21.416;2023-10-09T07:09:04;100751.80;;;4.45;57.33
35307;BME280;21420;52.196;21.416;2023-10-09T07:11:38;100758.94;;;4.59;57.39
35307;BME280;21420;52.196;21.416;2023-10-09T07:16:51;100759.59;;;5.06;57.55
35307;BME280;21420;52.196;21.416;2023-10-09T07:19:28;100756.79;;;5.34;57.64
35307;BME280;21420;52.196;21.416;2023-10-09T07:22:02;100755.10;;;5.55;57.39
35307;BME280;21420;52.196;21.416;2023-10-09T07:24:42;100748.69;;;5.70;57.26
35307;BME280;21420;52.196;21.416;2023-10-09T07:27:17;100749.02;;;5.86;57.27
35307;BME280;21420;52.196;21.416;2023-10-09T07:29:44;100752.17;;;6.46;57.82
35307;BME280;21420;52.196;21.416;2023-10-09T07:32:17;100750.79;;;7.48;58.22
35307;BME280;21420;52.196;21.416;2023-10-09T07:34:48;100751.72;;;8.12;57.84
35307;BME280;21420;52.196;21.416;2023-10-09T07:37:27;100749.54;;;8.52;57.53
35307;BME280;21420;52.196;21.416;2023-10-09T07:40:05;100752.25;;;8.53;56.89
35307;BME280;21420;52.196;21.416;2023-10-09T07:42:34;100758.35;;;8.66;56.79
35307;BME280;21420;52.196;21.416;2023-10-09T07:45:03;100755.77;;;8.87;56.58
35307;BME280;21420;52.196;21.416;2023-10-09T07:47:59;100759.52;;;9.08;56.48
35307;BME280;21420;52.196;21.416;2023-10-09T07:50:35;100761.48;;;9.13;56.25
35307;BME280;21420;52.196;21.416;2023-10-09T07:53:07;100764.10;;;9.04;55.90
35307;BME280;21420;52.196;21.416;2023-10-09T07:56:07;100766.27;;;8.93;55.61
35307;BME280;21420;52.196;21.416;2023-10-09T07:58:33;100767.81;;;8.86;55.54
35307;BME280;21420;52.196;21.416;2023-10-09T08:01:14;100766.53;;;8.79;55.42
35307;BME280;21420;52.196;21.416;2023-10-09T08:04:02;100767.17;;;8.71;55.46
35307;BME280;21420;52.196;21.416;2023-10-09T08:06:34;100758.11;;;8.63;55.23
35307;BME280;21420;52.196;21.416;2023-10-09T08:09:06;100750.71;;;8.62;55.17
35307;BME280;21420;52.196;21.416;2023-10-09T08:11:49;100746.67;;;8.70;55.24
35307;BME280;21420;52.196;21.416;2023-10-09T08:14:34;100740.86;;;8.87;55.36
35307;BME280;21420;52.196;21.416;2023-10-09T08:17:01;100737.84;;;9.05;55.27
35307;BME280;21420;52.196;21.416;2023-10-09T08:19:50;100732.55;;;9.12;55.21
35307;BME280;21420;52.196;21.416;2023-10-09T08:22:29;100729.02;;;9.13;55.08
35307;BME280;21420;52.196;21.416;2023-10-09T08:24:57;100731.07;;;9.19;54.98
35307;BME280;21420;52.196;21.416;2023-10-09T08:27:28;100729.74;;;9.19;54.86
35307;BME280;21420;52.196;21.416;2023-10-09T08:30:03;100724.91;;;9.31;55.04
35307;BME280;21420;52.196;21.416;2023-10-09T08:32:46;100727.99;;;9.43;54.75
35307;BME280;21420;52.196;21.416;2023-10-09T08:35:34;100729.84;;;9.52;54.80
35307;BME280;21420;52.196;21.416;2023-10-09T08:38:22;100735.41;;;9.65;54.78
35307;BME280;21420;52.196;21.416;2023-10-09T08:40:53;100728.19;;;9.73;54.62
35307;BME280;21420;52.196;21.416;2023-10-09T08:43:25;100721.46;;;9.80;54.55
35307;BME280;21420;52.196;21.416;2023-10-09T08:45:56;100719.84;;;9.87;54.36
35307;BME280;21420;52.196;21.416;2023-10-09T08:48:30;100714.30;;;10.09;54.55
35307;BME280;21420;52.196;21.416;2023-10-09T08:51:00;100715.88;;;10.55;54.76
35307;BME280;21420;52.196;21.416;2023-10-09T08:53:31;100715.69;;;10.92;54.51
35307;BME280;21420;52.196;21.416;2023-10-09T08:56:01;100710.92;;;11.34;54.63
35307;BME280;21420;52.196;21.416;2023-10-09T08:58:31;100711.70;;;11.76;54.44
35307;BME280;21420;52.196;21.416;2023-10-09T09:01:03;100714.18;;;12.00;54.30
35307;BME280;21420;52.196;21.416;2023-10-09T09:03:39;100720.58;;;12.13;54.04
35307;BME280;21420;52.196;21.416;2023-10-09T09:06:05;100716.48;;;12.21;53.78
35307;BME280;21420;52.196;21.416;2023-10-09T09:08:33;100703.86;;;12.32;53.47
35307;BME280;21420;52.196;21.416;2023-10-09T09:11:07;100700.65;;;12.39;53.12
35307;BME280;21420;52.196;21.416;2023-10-09T09:13:44;100703.13;;;12.48;52.88
35307;BME280;21420;52.196;21.416;2023-10-09T09:16:20;100699.02;;;12.71;52.94
35307;BME280;21420;52.196;21.416;2023-10-09T09:18:58;100691.45;;;13.12;53.06
35307;BME280;21420;52.196;21.416;2023-10-09T09:21:42;100688.50;;;13.73;53.02
35307;BME280;21420;52.196;21.416;2023-10-09T09:24:11;100682.32;;;14.21;52.89
35307;BME280;21420;52.196;21.416;2023-10-09T09:26:55;100678.84;;;14.82;52.87
35307;BME280;21420;52.196;21.416;2023-10-09T09:29:46;100676.73;;;15.42;52.70
35307;BME280;21420;52.196;21.416;2023-10-09T09:32:30;100672.16;;;15.42;51.71
35307;BME280;21420;52.196;21.416;2023-10-09T09:35:03;100664.00;;;15.29;51.31
35307;BME280;21420;52.196;21.416;2023-10-09T09:37:33;100660.48;;;15.17;50.66
35307;BME280;21420;52.196;21.416;2023-10-09T09:40:09;100663.80;;;14.85;50.30
35307;BME280;21420;52.196;21.416;2023-10-09T09:43:01;100665.88;;;14.94;50.87
35307;BME280;21420;52.196;21.416;2023-10-09T09:45:38;100658.95;;;15.90;51.56
35307;BME280;21420;52.196;21.416;2023-10-09T09:48:13;100647.84;;;16.53;51.64
35307;BME280;21420;52.196;21.416;2023-10-09T09:50:43;100647.77;;;16.87;50.98
35307;BME280;21420;52.196;21.416;2023-10-09T09:53:15;100645.36;;;17.01;50.46
35307;BME280;21420;52.196;21.416;2023-10-09T09:55:53;100644.58;;;17.24;50.04
35307;BME280;21420;52.196;21.416;2023-10-09T09:58:26;100641.39;;;17.88;50.68
35307;BME280;21420;52.196;21.416;2023-10-09T10:01:10;100633.68;;;19.24;51.10
35307;BME280;21420;52.196;21.416;2023-10-09T10:03:56;100617.81;;;19.88;50.19
35307;BME280;21420;52.196;21.416;2023-10-09T10:06:25;100615.17;;;20.33;50.13
35307;BME280;21420;52.196;21.416;2023-10-09T10:08:53;100616.21;;;21.04;50.02
35307;BME280;21420;52.196;21.416;2023-10-09T10:11:44;100612.58;;;21.91;49.94
35307;BME280;21420;52.196;21.416;2023-10-09T10:14:14;100609.79;;;21.81;48.20
35307;BME280;21420;52.196;21.416;2023-10-09T10:17:02;100610.74;;;21.47;47.38
35307;BME280;21420;52.196;21.416;2023-10-09T10:22:40;100601.78;;;21.19;47.09
35307;BME280;21420;52.196;21.416;2023-10-09T10:30:46;100580.92;;;20.59;45.85
35307;BME280;21420;52.196;21.416;2023-10-09T10:33:12;100577.41;;;20.50;45.95
35307;BME280;21420;52.196;21.416;2023-10-09T10:35:43;100570.98;;;20.44;45.98
35307;BME280;21420;52.196;21.416;2023-10-09T10:38:29;100565.43;;;20.11;45.24
35307;BME280;21420;52.196;21.416;2023-10-09T10:41:15;100563.64;;;19.29;44.43
35307;BME280;21420;52.196;21.416;2023-10-09T10:43:48;100556.63;;;18.50;44.20
35307;BME280;21420;52.196;21.416;2023-10-09T10:46:22;100551.71;;;18.00;44.19
35307;BME280;21420;52.196;21.416;2023-10-09T10:49:07;100551.55;;;17.82;44.87
35307;BME280;21420;52.196;21.416;2023-10-09T10:51:41;100549.98;;;17.62;44.48
35307;BME280;21420;52.196;21.416;2023-10-09T10:54:10;100546.56;;;17.00;43.89
35307;BME280;21420;52.196;21.416;2023-10-09T10:57:03;100548.92;;;16.34;43.80
35307;BME280;21420;52.196;21.416;2023-10-09T10:59:46;100539.39;;;15.95;44.12
35307;BME280;21420;52.196;21.416;2023-10-09T11:02:16;100542.40;;;15.66;44.07
35307;BME280;21420;52.196;21.416;2023-10-09T11:04:54;100539.34;;;15.27;44.02
35307;BME280;21420;52.196;21.416;2023-10-09T11:07:22;100536.29;;;14.96;44.14
35307;BME280;21420;52.196;21.416;2023-10-09T11:09:54;100535.48;;;14.70;44.11
35307;BME280;21420;52.196;21.416;2023-10-09T11:15:09;100530.26;;;13.87;43.61
35307;BME280;21420;52.196;21.416;2023-10-09T11:18:01;100525.51;;;13.49;43.88
35307;BME280;21420;52.196;21.416;2023-10-09T11:20:39;100526.23;;;13.22;43.87
35307;BME280;21420;52.196;21.416;2023-10-09T11:23:21;100523.27;;;13.03;43.98
35307;BME280;21420;52.196;21.416;2023-10-09T11:25:56;100524.35;;;12.87;44.07
35307;BME280;21420;52.196;21.416;2023-10-09T11:28:43;100525.93;;;12.68;44.16
35307;BME280;21420;52.196;21.416;2023-10-09T11:31:15;100522.58;;;12.48;44.16
35307;BME280;21420;52.196;21.416;2023-10-09T11:34:01;100516.05;;;12.30;44.13
35307;BME280;21420;52.196;21.416;2023-10-09T11:36:34;100512.91;;;12.20;44.27
35307;BME280;21420;52.196;21.416;2023-10-09T11:39:02;100513.11;;;12.18;44.60
35307;BME280;21420;52.196;21.416;2023-10-09T11:41:45;100513.29;;;12.05;44.23
35307;BME280;21420;52.196;21.416;2023-10-09T11:44:16;100516.95;;;11.80;44.33
35307;BME280;21420;52.196;21.416;2023-10-09T11:46:58;100519.55;;;11.68;44.27
35307;BME280;21420;52.196;21.416;2023-10-09T11:50:09;100515.90;;;11.57;44.26
35307;BME280;21420;52.196;21.416;2023-10-09T11:52:58;100504.52;;;11.52;44.62
35307;BME280;21420;52.196;21.416;2023-10-09T11:55:45;100500.10;;;11.44;44.73
35307;BME280;21420;52.196;21.416;2023-10-09T11:58:19;100499.71;;;11.31;44.63
35307;BME280;21420;52.196;21.416;2023-10-09T12:00:52;100502.77;;;11.29;44.77
35307;BME280;21420;52.196;21.416;2023-10-09T12:03:25;100501.73;;;11.33;44.91
35307;BME280;21420;52.196;21.416;2023-10-09T12:06:01;100494.70;;;11.31;45.04
35307;BME280;21420;52.196;21.416;2023-10-09T12:08:41;100493.28;;;11.33;45.00
35307;BME280;21420;52.196;21.416;2023-10-09T12:11:08;100491.10;;;11.34;44.91
35307;BME280;21420;52.196;21.416;2023-10-09T12:13:37;100496.47;;;11.37;45.04
35307;BME280;21420;52.196;21.416;2023-10-09T12:16:10;100497.24;;;11.41;45.27
35307;BME280;21420;52.196;21.416;2023-10-09T12:18:37;100493.92;;;11.36;45.09
35307;BME280;21420;52.196;21.416;2023-10-09T12:21:06;100486.81;;;11.38;45.19
35307;BME280;21420;52.196;21.416;2023-10-09T12:23:33;100487.80;;;11.42;45.14
35307;BME280;21420;52.196;21.416;2023-10-09T12:26:03;100488.27;;;11.37;45.15
35307;BME280;21420;52.196;21.416;2023-10-09T12:28:30;100485.97;;;11.28;45.08
35307;BME280;21420;52.196;21.416;2023-10-09T12:30:59;100484.95;;;11.21;45.10
35307;BME280;21420;52.196;21.416;2023-10-09T12:33:30;100478.02;;;11.17;45.23
35307;BME280;21420;52.196;21.416;2023-10-09T12:35:58;100472.88;;;11.16;45.40
35307;BME280;21420;52.196;21.416;2023-10-09T12:38:29;100474.41;;;11.11;45.11
35307;BME280;21420;52.196;21.416;2023-10-09T12:41:06;100473.28;;;11.01;45.22
35307;BME280;21420;52.196;21.416;2023-10-09T12:43:56;100472.86;;;10.98;45.48
35307;BME280;21420;52.196;21.416;2023-10-09T12:46:25;100473.77;;;10.97;45.50
35307;BME280;21420;52.196;21.416;2023-10-09T12:48:53;100479.24;;;10.93;45.47
35307;BME280;21420;52.196;21.416;2023-10-09T12:51:22;100484.78;;;10.86;45.55
35307;BME280;21420;52.196;21.416;2023-10-09T12:53:57;100484.52;;;10.78;45.42
35307;BME280;21420;52.196;21.416;2023-10-09T12:56:25;100477.09;;;10.77;45.53
35307;BME280;21420;52.196;21.416;2023-10-09T12:59:05;100475.98;;;10.78;45.68
35307;BME280;21420;52.196;21.416;2023-10-09T13:01:33;100479.58;;;10.85;45.81
35307;BME280;21420;52.196;21.416;2023-10-09T13:04:11;100478.84;;;10.95;45.88
35307;BME280;21420;52.196;21.416;2023-10-09T13:06:39;100478.52;;;11.05;46.06
35307;BME280;21420;52.196;21.416;2023-10-09T13:09:16;100480.61;;;11.07;46.04
35307;BME280;21420;52.196;21.416;2023-10-09T13:11:51;100478.16;;;11.06;45.94
35307;BME280;21420;52.196;21.416;2023-10-09T13:14:18;100472.23;;;11.02;45.89
35307;BME280;21420;52.196;21.416;2023-10-09T13:16:48;100466.12;;;11.00;45.80
35307;BME280;21420;52.196;21.416;2023-10-09T13:19:21;100463.19;;;10.97;45.96
35307;BME280;21420;52.196;21.416;2023-10-09T13:21:51;100461.24;;;10.97;46.21
35307;BME280;21420;52.196;21.416;2023-10-09T13:24:18;100458.75;;;10.99;46.24
35307;BME280;21420;52.196;21.416;2023-10-09T13:26:48;100449.80;;;10.99;46.22
35307;BME280;21420;52.196;21.416;2023-10-09T13:29:18;100449.66;;;10.93;46.22
35307;BME280;21420;52.196;21.416;2023-10-09T13:31:51;100442.84;;;10.84;46.25
35307;BME280;21420;52.196;21.416;2023-10-09T13:34:25;100439.39;;;10.74;46.21
35307;BME280;21420;52.196;21.416;2023-10-09T13:36:55;100436.25;;;10.72;46.39
35307;BME280;21420;52.196;21.416;2023-10-09T13:39:25;100435.77;;;10.73;46.34
35307;BME280;21420;52.196;21.416;2023-10-09T13:44:34;100429.25;;;10.65;46.44
35307;BME280;21420;52.196;21.416;2023-10-09T13:47:04;100430.16;;;10.58;46.48
35307;BME280;21420;52.196;21.416;2023-10-09T13:49:33;100426.43;;;10.54;46.56
35307;BME280;21420;52.196;21.416;2023-10-09T13:52:01;100423.02;;;10.55;46.77
35307;BME280;21420;52.196;21.416;2023-10-09T13:54:30;100412.25;;;10.60;46.85
35307;BME280;21420;52.196;21.416;2023-10-09T13:57:00;100411.83;;;10.81;47.16